sensor_id;sensor_type;location;lat;lon;timestamp;P1;durP1;ratioP1;P2;durP2;ratioP2
13566;SDS011;6855;48.112;11.298;2023-03-03T00:00:55;53.13;;;20.47;;
13566;SDS011;6855;48.112;11.298;2023-03-03T00:03:23;44.77;;;18.70;;
13566;SDS011;6855;48.112;11.298;2023-03-03T00:05:51;43.43;;;19.30;;
13566;SDS011;6855;48.112;11.298;2023-03-03T00:08:19;46.80;;;20.33;;
13566;SDS011;6855;48.112;11.298;2023-03-03T00:10:46;45.53;;;19.37;;
13566;SDS011;6855;48.112;11.298;2023-03-03T00:13:16;45.03;;;20.63;;
13566;SDS011;6855;48.112;11.298;2023-03-03T00:15:43;47.63;;;19.93;;
13566;SDS011;6855;48.112;11.298;2023-03-03T00:18:18;45.70;;;20.47;;
13566;SDS011;6855;48.112;11.298;2023-03-03T00:20:48;42.47;;;19.93;;
13566;SDS011;6855;48.112;11.298;2023-03-03T00:23:18;40.47;;;18.20;;
13566;SDS011;6855;48.112;11.298;2023-03-03T00:25:46;48.23;;;20.20;;
13566;SDS011;6855;48.112;11.298;2023-03-03T00:28:20;49.23;;;20.07;;
13566;SDS011;6855;48.112;11.298;2023-03-03T00:30:48;50.37;;;21.23;;
13566;SDS011;6855;48.112;11.298;2023-03-03T00:33:19;43.80;;;19.93;;
13566;SDS011;6855;48.112;11.298;2023-03-03T00:35:48;43.37;;;19.53;;
13566;SDS011;6855;48.112;11.298;2023-03-03T00:38:18;45.47;;;19.80;;
13566;SDS011;6855;48.112;11.298;2023-03-03T00:40:46;40.40;;;18.00;;
13566;SDS011;6855;48.112;11.298;2023-03-03T00:43:16;47.23;;;19.43;;
13566;SDS011;6855;48.112;11.298;2023-03-03T00:45:46;44.53;;;19.77;;
13566;SDS011;6855;48.112;11.298;2023-03-03T00:48:21;46.30;;;21.50;;
13566;SDS011;6855;48.112;11.298;2023-03-03T00:50:48;41.60;;;19.13;;
13566;SDS011;6855;48.112;11.298;2023-03-03T00:53:16;39.93;;;18.60;;
13566;SDS011;6855;48.112;11.298;2023-03-03T00:55:44;54.60;;;21.30;;
13566;SDS011;6855;48.112;11.298;2023-03-03T00:58:12;42.97;;;19.23;;
13566;SDS011;6855;48.112;11.298;2023-03-03T01:00:39;52.67;;;19.53;;
13566;SDS011;6855;48.112;11.298;2023-03-03T01:03:09;39.43;;;17.70;;
13566;SDS011;6855;48.112;11.298;2023-03-03T01:05:36;43.33;;;19.53;;
13566;SDS011;6855;48.112;11.298;2023-03-03T01:08:04;46.00;;;19.83;;
13566;SDS011;6855;48.112;11.298;2023-03-03T01:10:32;45.17;;;18.93;;
13566;SDS011;6855;48.112;11.298;2023-03-03T01:13:00;40.47;;;18.93;;
13566;SDS011;6855;48.112;11.298;2023-03-03T01:15:27;56.50;;;21.00;;
13566;SDS011;6855;48.112;11.298;2023-03-03T01:17:55;46.23;;;18.90;;
13566;SDS011;6855;48.112;11.298;2023-03-03T01:20:23;47.00;;;19.30;;
13566;SDS011;6855;48.112;11.298;2023-03-03T01:22:50;51.90;;;19.80;;
13566;SDS011;6855;48.112;11.298;2023-03-03T01:25:18;47.93;;;19.47;;
13566;SDS011;6855;48.112;11.298;2023-03-03T01:27:45;44.57;;;17.80;;
13566;SDS011;6855;48.112;11.298;2023-03-03T01:30:13;43.50;;;18.60;;
13566;SDS011;6855;48.112;11.298;2023-03-03T01:32:40;44.00;;;19.30;;
13566;SDS011;6855;48.112;11.298;2023-03-03T01:35:07;38.47;;;16.73;;
13566;SDS011;6855;48.112;11.298;2023-03-03T01:37:36;49.00;;;20.03;;
13566;SDS011;6855;48.112;11.298;2023-03-03T01:40:04;46.57;;;19.57;;
13566;SDS011;6855;48.112;11.298;2023-03-03T01:42:32;39.77;;;18.90;;
13566;SDS011;6855;48.112;11.298;2023-03-03T01:45:10;44.43;;;18.40;;
13566;SDS011;6855;48.112;11.298;2023-03-03T01:47:38;42.57;;;17.53;;
13566;SDS011;6855;48.112;11.298;2023-03-03T01:50:09;45.63;;;20.53;;
13566;SDS011;6855;48.112;11.298;2023-03-03T01:52:41;42.67;;;19.90;;
13566;SDS011;6855;48.112;11.298;2023-03-03T01:55:10;47.37;;;18.97;;
13566;SDS011;6855;48.112;11.298;2023-03-03T01:57:39;51.30;;;19.93;;
13566;SDS011;6855;48.112;11.298;2023-03-03T02:00:07;39.97;;;18.80;;
13566;SDS011;6855;48.112;11.298;2023-03-03T02:02:37;46.20;;;17.70;;
13566;SDS011;6855;48.112;11.298;2023-03-03T02:05:05;38.73;;;17.37;;
13566;SDS011;6855;48.112;11.298;2023-03-03T02:07:32;40.10;;;19.17;;
13566;SDS011;6855;48.112;11.298;2023-03-03T02:10:03;39.70;;;17.37;;
13566;SDS011;6855;48.112;11.298;2023-03-03T02:12:32;45.03;;;20.40;;
13566;SDS011;6855;48.112;11.298;2023-03-03T02:15:00;48.50;;;18.43;;
13566;SDS011;6855;48.112;11.298;2023-03-03T02:17:27;44.10;;;18.10;;
13566;SDS011;6855;48.112;11.298;2023-03-03T02:19:57;42.60;;;17.37;;
13566;SDS011;6855;48.112;11.298;2023-03-03T02:22:30;44.07;;;17.47;;
13566;SDS011;6855;48.112;11.298;2023-03-03T02:24:59;41.23;;;17.90;;
13566;SDS011;6855;48.112;11.298;2023-03-03T02:27:29;41.50;;;18.20;;
13566;SDS011;6855;48.112;11.298;2023-03-03T02:29:57;47.83;;;18.50;;
13566;SDS011;6855;48.112;11.298;2023-03-03T02:32:24;42.33;;;17.83;;
13566;SDS011;6855;48.112;11.298;2023-03-03T02:34:51;46.47;;;17.50;;
13566;SDS011;6855;48.112;11.298;2023-03-03T02:37:19;42.20;;;19.47;;
13566;SDS011;6855;48.112;11.298;2023-03-03T02:39:46;37.53;;;17.97;;
13566;SDS011;6855;48.112;11.298;2023-03-03T02:42:15;41.90;;;18.43;;
13566;SDS011;6855;48.112;11.298;2023-03-03T02:44:45;37.27;;;16.87;;
13566;SDS011;6855;48.112;11.298;2023-03-03T02:47:12;47.10;;;19.60;;
13566;SDS011;6855;48.112;11.298;2023-03-03T02:49:40;43.87;;;19.97;;
13566;SDS011;6855;48.112;11.298;2023-03-03T02:52:09;43.97;;;18.90;;
13566;SDS011;6855;48.112;11.298;2023-03-03T02:54:36;36.00;;;16.77;;
13566;SDS011;6855;48.112;11.298;2023-03-03T02:57:04;47.43;;;18.07;;
13566;SDS011;6855;48.112;11.298;2023-03-03T02:59:32;38.97;;;16.17;;
13566;SDS011;6855;48.112;11.298;2023-03-03T03:02:01;46.77;;;19.33;;
13566;SDS011;6855;48.112;11.298;2023-03-03T03:04:28;45.30;;;19.13;;
13566;SDS011;6855;48.112;11.298;2023-03-03T03:06:55;45.07;;;18.83;;
13566;SDS011;6855;48.112;11.298;2023-03-03T03:09:23;38.93;;;18.33;;
13566;SDS011;6855;48.112;11.298;2023-03-03T03:11:52;37.87;;;16.70;;
13566;SDS011;6855;48.112;11.298;2023-03-03T03:14:19;47.17;;;19.30;;
13566;SDS011;6855;48.112;11.298;2023-03-03T03:16:47;39.27;;;18.23;;
13566;SDS011;6855;48.112;11.298;2023-03-03T03:19:16;46.00;;;18.17;;
13566;SDS011;6855;48.112;11.298;2023-03-03T03:21:43;42.43;;;20.23;;
13566;SDS011;6855;48.112;11.298;2023-03-03T03:24:10;41.93;;;18.60;;
13566;SDS011;6855;48.112;11.298;2023-03-03T03:26:38;44.30;;;19.57;;
13566;SDS011;6855;48.112;11.298;2023-03-03T03:29:05;55.57;;;19.50;;
13566;SDS011;6855;48.112;11.298;2023-03-03T03:31:32;47.53;;;21.03;;
13566;SDS011;6855;48.112;11.298;2023-03-03T03:33:59;44.33;;;19.87;;
13566;SDS011;6855;48.112;11.298;2023-03-03T03:36:28;46.30;;;20.10;;
13566;SDS011;6855;48.112;11.298;2023-03-03T03:38:55;46.80;;;19.87;;
13566;SDS011;6855;48.112;11.298;2023-03-03T03:41:22;52.87;;;19.50;;
13566;SDS011;6855;48.112;11.298;2023-03-03T03:43:49;38.03;;;19.50;;
13566;SDS011;6855;48.112;11.298;2023-03-03T03:46:17;42.20;;;18.60;;
13566;SDS011;6855;48.112;11.298;2023-03-03T03:48:44;51.03;;;19.80;;
13566;SDS011;6855;48.112;11.298;2023-03-03T03:51:11;42.50;;;19.10;;
13566;SDS011;6855;48.112;11.298;2023-03-03T03:53:40;45.17;;;19.20;;
13566;SDS011;6855;48.112;11.298;2023-03-03T03:56:07;41.30;;;18.97;;
13566;SDS011;6855;48.112;11.298;2023-03-03T03:58:34;45.40;;;18.13;;
13566;SDS011;6855;48.112;11.298;2023-03-03T04:01:02;41.53;;;17.43;;
13566;SDS011;6855;48.112;11.298;2023-03-03T04:03:29;41.93;;;18.47;;
13566;SDS011;6855;48.112;11.298;2023-03-03T04:05:56;47.57;;;19.57;;
13566;SDS011;6855;48.112;11.298;2023-03-03T04:08:24;43.37;;;19.27;;
13566;SDS011;6855;48.112;11.298;2023-03-03T04:10:52;42.97;;;18.83;;
13566;SDS011;6855;48.112;11.298;2023-03-03T04:13:20;44.70;;;19.10;;
13566;SDS011;6855;48.112;11.298;2023-03-03T04:15:47;43.17;;;20.30;;
13566;SDS011;6855;48.112;11.298;2023-03-03T04:18:14;43.00;;;19.20;;
13566;SDS011;6855;48.112;11.298;2023-03-03T04:20:42;45.97;;;19.97;;
13566;SDS011;6855;48.112;11.298;2023-03-03T04:23:09;41.47;;;18.97;;
13566;SDS011;6855;48.112;11.298;2023-03-03T04:25:36;46.03;;;19.00;;
13566;SDS011;6855;48.112;11.298;2023-03-03T04:28:05;41.27;;;19.80;;
13566;SDS011;6855;48.112;11.298;2023-03-03T04:30:32;42.33;;;18.10;;
13566;SDS011;6855;48.112;11.298;2023-03-03T04:32:59;53.37;;;21.00;;
13566;SDS011;6855;48.112;11.298;2023-03-03T04:35:26;42.37;;;19.23;;
13566;SDS011;6855;48.112;11.298;2023-03-03T04:37:54;40.53;;;19.30;;
13566;SDS011;6855;48.112;11.298;2023-03-03T04:40:21;47.90;;;19.50;;
13566;SDS011;6855;48.112;11.298;2023-03-03T04:42:48;39.00;;;18.40;;
13566;SDS011;6855;48.112;11.298;2023-03-03T04:45:17;44.17;;;19.67;;
13566;SDS011;6855;48.112;11.298;2023-03-03T04:47:44;42.97;;;20.57;;
13566;SDS011;6855;48.112;11.298;2023-03-03T04:50:12;46.40;;;20.93;;
13566;SDS011;6855;48.112;11.298;2023-03-03T04:52:39;46.00;;;19.80;;
13566;SDS011;6855;48.112;11.298;2023-03-03T04:55:07;51.30;;;21.50;;
13566;SDS011;6855;48.112;11.298;2023-03-03T04:57:34;42.60;;;19.53;;
13566;SDS011;6855;48.112;11.298;2023-03-03T05:00:02;46.93;;;21.23;;
13566;SDS011;6855;48.112;11.298;2023-03-03T05:02:32;41.83;;;19.57;;
13566;SDS011;6855;48.112;11.298;2023-03-03T05:04:59;51.40;;;21.03;;
13566;SDS011;6855;48.112;11.298;2023-03-03T05:07:26;47.30;;;20.27;;
13566;SDS011;6855;48.112;11.298;2023-03-03T05:09:53;51.47;;;22.10;;
13566;SDS011;6855;48.112;11.298;2023-03-03T05:12:21;47.17;;;20.70;;
13566;SDS011;6855;48.112;11.298;2023-03-03T05:14:48;47.57;;;21.37;;
13566;SDS011;6855;48.112;11.298;2023-03-03T05:17:15;49.27;;;21.57;;
13566;SDS011;6855;48.112;11.298;2023-03-03T05:19:44;45.63;;;21.03;;
13566;SDS011;6855;48.112;11.298;2023-03-03T05:22:11;43.77;;;20.93;;
13566;SDS011;6855;48.112;11.298;2023-03-03T05:24:38;47.47;;;20.63;;
13566;SDS011;6855;48.112;11.298;2023-03-03T05:27:07;44.30;;;20.17;;
13566;SDS011;6855;48.112;11.298;2023-03-03T05:29:35;42.67;;;19.87;;
13566;SDS011;6855;48.112;11.298;2023-03-03T05:32:03;49.33;;;21.57;;
13566;SDS011;6855;48.112;11.298;2023-03-03T05:34:30;49.70;;;21.50;;
13566;SDS011;6855;48.112;11.298;2023-03-03T05:36:58;54.73;;;22.57;;
13566;SDS011;6855;48.112;11.298;2023-03-03T05:39:27;49.63;;;21.00;;
13566;SDS011;6855;48.112;11.298;2023-03-03T05:41:54;60.40;;;28.35;;
13566;SDS011;6855;48.112;11.298;2023-03-03T05:44:22;60.50;;;24.33;;
13566;SDS011;6855;48.112;11.298;2023-03-03T05:46:49;56.07;;;24.47;;
13566;SDS011;6855;48.112;11.298;2023-03-03T05:49:16;53.80;;;22.63;;
13566;SDS011;6855;48.112;11.298;2023-03-03T05:51:43;52.90;;;21.07;;
13566;SDS011;6855;48.112;11.298;2023-03-03T05:54:12;48.50;;;22.27;;
13566;SDS011;6855;48.112;11.298;2023-03-03T05:56:39;48.47;;;22.57;;
13566;SDS011;6855;48.112;11.298;2023-03-03T05:59:06;47.43;;;21.30;;
13566;SDS011;6855;48.112;11.298;2023-03-03T06:01:33;59.17;;;22.33;;
13566;SDS011;6855;48.112;11.298;2023-03-03T06:04:00;53.20;;;22.67;;
13566;SDS011;6855;48.112;11.298;2023-03-03T06:06:28;63.97;;;27.13;;
13566;SDS011;6855;48.112;11.298;2023-03-03T06:08:55;53.33;;;24.90;;
13566;SDS011;6855;48.112;11.298;2023-03-03T06:11:23;74.83;;;25.70;;
13566;SDS011;6855;48.112;11.298;2023-03-03T06:13:50;47.97;;;22.13;;
13566;SDS011;6855;48.112;11.298;2023-03-03T06:16:17;55.10;;;21.43;;
13566;SDS011;6855;48.112;11.298;2023-03-03T06:18:45;48.33;;;21.73;;
13566;SDS011;6855;48.112;11.298;2023-03-03T06:21:12;45.70;;;20.97;;
13566;SDS011;6855;48.112;11.298;2023-03-03T06:23:39;56.77;;;23.77;;
13566;SDS011;6855;48.112;11.298;2023-03-03T06:26:06;53.67;;;21.83;;
13566;SDS011;6855;48.112;11.298;2023-03-03T06:28:35;50.83;;;23.73;;
13566;SDS011;6855;48.112;11.298;2023-03-03T06:31:02;54.13;;;24.80;;
13566;SDS011;6855;48.112;11.298;2023-03-03T06:33:29;49.60;;;22.13;;
13566;SDS011;6855;48.112;11.298;2023-03-03T06:35:57;55.80;;;26.17;;
13566;SDS011;6855;48.112;11.298;2023-03-03T06:38:24;56.87;;;24.23;;
13566;SDS011;6855;48.112;11.298;2023-03-03T06:40:51;52.63;;;22.73;;
13566;SDS011;6855;48.112;11.298;2023-03-03T06:43:18;54.63;;;23.70;;
13566;SDS011;6855;48.112;11.298;2023-03-03T06:45:47;54.10;;;24.13;;
13566;SDS011;6855;48.112;11.298;2023-03-03T06:48:14;46.63;;;20.73;;
13566;SDS011;6855;48.112;11.298;2023-03-03T06:50:41;58.13;;;24.50;;
13566;SDS011;6855;48.112;11.298;2023-03-03T06:53:10;56.60;;;24.10;;
13566;SDS011;6855;48.112;11.298;2023-03-03T06:55:37;53.40;;;23.53;;
13566;SDS011;6855;48.112;11.298;2023-03-03T06:58:07;53.27;;;22.00;;
13566;SDS011;6855;48.112;11.298;2023-03-03T07:00:35;64.83;;;25.13;;
13566;SDS011;6855;48.112;11.298;2023-03-03T07:03:07;52.00;;;23.13;;
13566;SDS011;6855;48.112;11.298;2023-03-03T07:05:38;50.03;;;21.43;;
13566;SDS011;6855;48.112;11.298;2023-03-03T07:08:05;56.47;;;23.03;;
13566;SDS011;6855;48.112;11.298;2023-03-03T07:10:36;62.60;;;24.00;;
13566;SDS011;6855;48.112;11.298;2023-03-03T07:13:11;62.43;;;24.87;;
13566;SDS011;6855;48.112;11.298;2023-03-03T07:15:42;56.40;;;23.60;;
13566;SDS011;6855;48.112;11.298;2023-03-03T07:18:19;51.27;;;21.93;;
13566;SDS011;6855;48.112;11.298;2023-03-03T07:20:47;52.17;;;23.13;;
13566;SDS011;6855;48.112;11.298;2023-03-03T07:23:17;57.93;;;25.83;;
13566;SDS011;6855;48.112;11.298;2023-03-03T07:25:47;52.07;;;23.83;;
13566;SDS011;6855;48.112;11.298;2023-03-03T07:28:18;58.97;;;24.63;;
13566;SDS011;6855;48.112;11.298;2023-03-03T07:30:46;56.83;;;23.50;;
13566;SDS011;6855;48.112;11.298;2023-03-03T07:33:18;48.43;;;22.97;;
13566;SDS011;6855;48.112;11.298;2023-03-03T07:35:45;53.87;;;22.67;;
13566;SDS011;6855;48.112;11.298;2023-03-03T07:38:16;60.37;;;24.20;;
13566;SDS011;6855;48.112;11.298;2023-03-03T07:40:46;52.53;;;24.97;;
13566;SDS011;6855;48.112;11.298;2023-03-03T07:43:16;52.33;;;23.77;;
13566;SDS011;6855;48.112;11.298;2023-03-03T07:45:49;57.07;;;23.53;;
13566;SDS011;6855;48.112;11.298;2023-03-03T07:48:18;55.43;;;24.17;;
13566;SDS011;6855;48.112;11.298;2023-03-03T07:50:49;49.20;;;22.70;;
13566;SDS011;6855;48.112;11.298;2023-03-03T07:53:21;50.13;;;22.27;;
13566;SDS011;6855;48.112;11.298;2023-03-03T07:55:50;52.30;;;23.63;;
13566;SDS011;6855;48.112;11.298;2023-03-03T07:58:19;57.63;;;23.97;;
13566;SDS011;6855;48.112;11.298;2023-03-03T08:03:40;54.17;;;21.40;;
13566;SDS011;6855;48.112;11.298;2023-03-03T08:06:23;49.57;;;22.70;;
13566;SDS011;6855;48.112;11.298;2023-03-03T08:08:54;66.00;;;24.00;;
13566;SDS011;6855;48.112;11.298;2023-03-03T08:11:25;54.80;;;26.03;;
13566;SDS011;6855;48.112;11.298;2023-03-03T08:13:52;58.60;;;26.30;;
13566;SDS011;6855;48.112;11.298;2023-03-03T08:16:23;53.93;;;23.20;;
13566;SDS011;6855;48.112;11.298;2023-03-03T08:18:53;56.40;;;25.10;;
13566;SDS011;6855;48.112;11.298;2023-03-03T08:21:20;54.77;;;23.67;;
13566;SDS011;6855;48.112;11.298;2023-03-03T08:23:48;50.97;;;23.10;;
13566;SDS011;6855;48.112;11.298;2023-03-03T08:26:17;58.10;;;23.90;;
13566;SDS011;6855;48.112;11.298;2023-03-03T08:28:44;53.20;;;24.30;;
13566;SDS011;6855;48.112;11.298;2023-03-03T08:31:12;46.77;;;23.00;;
13566;SDS011;6855;48.112;11.298;2023-03-03T08:33:41;52.07;;;23.50;;
13566;SDS011;6855;48.112;11.298;2023-03-03T08:36:10;51.90;;;23.93;;
13566;SDS011;6855;48.112;11.298;2023-03-03T08:38:37;55.23;;;24.10;;
13566;SDS011;6855;48.112;11.298;2023-03-03T08:41:05;53.90;;;24.33;;
13566;SDS011;6855;48.112;11.298;2023-03-03T08:43:32;52.43;;;22.73;;
13566;SDS011;6855;48.112;11.298;2023-03-03T08:46:00;60.83;;;25.10;;
13566;SDS011;6855;48.112;11.298;2023-03-03T08:48:29;52.70;;;24.80;;
13566;SDS011;6855;48.112;11.298;2023-03-03T08:50:56;57.47;;;24.90;;
13566;SDS011;6855;48.112;11.298;2023-03-03T08:53:25;49.97;;;22.80;;
13566;SDS011;6855;48.112;11.298;2023-03-03T08:55:53;52.57;;;23.87;;
13566;SDS011;6855;48.112;11.298;2023-03-03T08:58:20;59.30;;;25.83;;
13566;SDS011;6855;48.112;11.298;2023-03-03T09:00:47;62.50;;;26.10;;
13566;SDS011;6855;48.112;11.298;2023-03-03T09:03:15;50.90;;;24.97;;
13566;SDS011;6855;48.112;11.298;2023-03-03T09:05:42;56.20;;;24.13;;
13566;SDS011;6855;48.112;11.298;2023-03-03T09:08:10;53.03;;;24.00;;
13566;SDS011;6855;48.112;11.298;2023-03-03T09:10:38;54.20;;;25.30;;
13566;SDS011;6855;48.112;11.298;2023-03-03T09:13:06;53.33;;;24.60;;
13566;SDS011;6855;48.112;11.298;2023-03-03T09:15:37;52.90;;;26.30;;
13566;SDS011;6855;48.112;11.298;2023-03-03T09:18:09;47.67;;;24.33;;
13566;SDS011;6855;48.112;11.298;2023-03-03T09:20:37;48.60;;;23.90;;
13566;SDS011;6855;48.112;11.298;2023-03-03T09:26:10;55.07;;;25.00;;
13566;SDS011;6855;48.112;11.298;2023-03-03T09:28:41;48.00;;;23.47;;
13566;SDS011;6855;48.112;11.298;2023-03-03T09:31:16;47.57;;;23.37;;
13566;SDS011;6855;48.112;11.298;2023-03-03T09:33:46;54.00;;;24.57;;
13566;SDS011;6855;48.112;11.298;2023-03-03T09:36:18;50.20;;;24.73;;
13566;SDS011;6855;48.112;11.298;2023-03-03T09:38:46;59.07;;;25.67;;
13566;SDS011;6855;48.112;11.298;2023-03-03T09:41:29;49.03;;;23.10;;
13566;SDS011;6855;48.112;11.298;2023-03-03T09:44:08;49.90;;;24.17;;
13566;SDS011;6855;48.112;11.298;2023-03-03T09:46:43;52.10;;;25.23;;
13566;SDS011;6855;48.112;11.298;2023-03-03T09:49:15;46.73;;;23.00;;
13566;SDS011;6855;48.112;11.298;2023-03-03T09:51:53;55.23;;;24.20;;
13566;SDS011;6855;48.112;11.298;2023-03-03T09:54:29;49.70;;;23.40;;
13566;SDS011;6855;48.112;11.298;2023-03-03T09:57:02;55.13;;;24.50;;
13566;SDS011;6855;48.112;11.298;2023-03-03T09:59:34;51.50;;;25.03;;
13566;SDS011;6855;48.112;11.298;2023-03-03T10:02:14;48.47;;;24.77;;
13566;SDS011;6855;48.112;11.298;2023-03-03T10:04:54;47.80;;;23.77;;
13566;SDS011;6855;48.112;11.298;2023-03-03T10:07:26;47.97;;;22.73;;
13566;SDS011;6855;48.112;11.298;2023-03-03T10:10:02;53.80;;;24.20;;
13566;SDS011;6855;48.112;11.298;2023-03-03T10:12:34;44.37;;;24.03;;
13566;SDS011;6855;48.112;11.298;2023-03-03T10:15:12;47.57;;;23.33;;
13566;SDS011;6855;48.112;11.298;2023-03-03T10:17:44;46.50;;;23.53;;
13566;SDS011;6855;48.112;11.298;2023-03-03T10:20:22;48.60;;;24.63;;
13566;SDS011;6855;48.112;11.298;2023-03-03T10:22:51;49.00;;;24.43;;
13566;SDS011;6855;48.112;11.298;2023-03-03T10:25:21;43.83;;;23.00;;
13566;SDS011;6855;48.112;11.298;2023-03-03T10:27:56;56.77;;;25.93;;
13566;SDS011;6855;48.112;11.298;2023-03-03T10:30:27;50.27;;;25.97;;
13566;SDS011;6855;48.112;11.298;2023-03-03T10:32:58;49.77;;;24.10;;
13566;SDS011;6855;48.112;11.298;2023-03-03T10:35:38;47.07;;;24.87;;
13566;SDS011;6855;48.112;11.298;2023-03-03T10:40:57;48.50;;;24.13;;
13566;SDS011;6855;48.112;11.298;2023-03-03T10:43:35;49.73;;;26.00;;
13566;SDS011;6855;48.112;11.298;2023-03-03T10:48:56;59.00;;;25.40;;
13566;SDS011;6855;48.112;11.298;2023-03-03T10:51:26;43.67;;;23.57;;
13566;SDS011;6855;48.112;11.298;2023-03-03T10:53:58;45.47;;;25.33;;
13566;SDS011;6855;48.112;11.298;2023-03-03T10:56:32;54.83;;;23.60;;
13566;SDS011;6855;48.112;11.298;2023-03-03T10:59:04;51.87;;;24.70;;
13566;SDS011;6855;48.112;11.298;2023-03-03T11:01:39;54.07;;;25.30;;
13566;SDS011;6855;48.112;11.298;2023-03-03T11:07:02;48.43;;;23.60;;
13566;SDS011;6855;48.112;11.298;2023-03-03T11:09:53;51.67;;;24.93;;
13566;SDS011;6855;48.112;11.298;2023-03-03T11:12:31;48.97;;;22.67;;
13566;SDS011;6855;48.112;11.298;2023-03-03T11:15:12;47.97;;;24.00;;
13566;SDS011;6855;48.112;11.298;2023-03-03T11:17:48;51.30;;;25.17;;
13566;SDS011;6855;48.112;11.298;2023-03-03T11:20:20;50.83;;;25.20;;
13566;SDS011;6855;48.112;11.298;2023-03-03T11:22:53;48.27;;;23.97;;
13566;SDS011;6855;48.112;11.298;2023-03-03T11:25:24;42.13;;;22.30;;
13566;SDS011;6855;48.112;11.298;2023-03-03T11:28:01;51.47;;;24.97;;
13566;SDS011;6855;48.112;11.298;2023-03-03T11:30:35;53.67;;;26.87;;
13566;SDS011;6855;48.112;11.298;2023-03-03T11:33:06;45.80;;;23.93;;
13566;SDS011;6855;48.112;11.298;2023-03-03T11:35:37;48.00;;;23.40;;
13566;SDS011;6855;48.112;11.298;2023-03-03T11:38:12;47.80;;;24.80;;
13566;SDS011;6855;48.112;11.298;2023-03-03T11:40:46;54.33;;;26.10;;
13566;SDS011;6855;48.112;11.298;2023-03-03T11:43:16;50.60;;;25.27;;
13566;SDS011;6855;48.112;11.298;2023-03-03T11:45:47;50.83;;;24.37;;
13566;SDS011;6855;48.112;11.298;2023-03-03T11:48:18;42.73;;;23.17;;
13566;SDS011;6855;48.112;11.298;2023-03-03T11:50:49;64.27;;;26.87;;
13566;SDS011;6855;48.112;11.298;2023-03-03T11:53:31;49.07;;;25.60;;
13566;SDS011;6855;48.112;11.298;2023-03-03T11:56:05;54.43;;;25.20;;
13566;SDS011;6855;48.112;11.298;2023-03-03T11:58:38;56.60;;;27.20;;
13566;SDS011;6855;48.112;11.298;2023-03-03T12:01:11;47.30;;;25.07;;
13566;SDS011;6855;48.112;11.298;2023-03-03T12:03:42;45.70;;;24.37;;
13566;SDS011;6855;48.112;11.298;2023-03-03T12:06:13;53.83;;;25.60;;
13566;SDS011;6855;48.112;11.298;2023-03-03T12:11:31;60.23;;;28.10;;
13566;SDS011;6855;48.112;11.298;2023-03-03T12:14:01;46.07;;;23.17;;
13566;SDS011;6855;48.112;11.298;2023-03-03T12:16:39;52.20;;;25.20;;
13566;SDS011;6855;48.112;11.298;2023-03-03T12:19:12;51.00;;;25.73;;
13566;SDS011;6855;48.112;11.298;2023-03-03T12:21:45;53.70;;;25.33;;
13566;SDS011;6855;48.112;11.298;2023-03-03T12:24:21;45.13;;;24.30;;
13566;SDS011;6855;48.112;11.298;2023-03-03T12:26:53;46.57;;;23.50;;
13566;SDS011;6855;48.112;11.298;2023-03-03T12:29:24;57.70;;;27.07;;
13566;SDS011;6855;48.112;11.298;2023-03-03T12:31:55;52.60;;;26.10;;
13566;SDS011;6855;48.112;11.298;2023-03-03T12:34:27;30.10;;;15.67;;
13566;SDS011;6855;48.112;11.298;2023-03-03T12:36:58;53.17;;;25.37;;
13566;SDS011;6855;48.112;11.298;2023-03-03T12:39:41;47.80;;;24.10;;
13566;SDS011;6855;48.112;11.298;2023-03-03T12:42:13;49.27;;;25.40;;
13566;SDS011;6855;48.112;11.298;2023-03-03T12:44:43;52.53;;;25.13;;
13566;SDS011;6855;48.112;11.298;2023-03-03T12:47:15;47.30;;;24.57;;
13566;SDS011;6855;48.112;11.298;2023-03-03T12:49:51;52.33;;;26.73;;
13566;SDS011;6855;48.112;11.298;2023-03-03T12:52:22;49.30;;;25.87;;
13566;SDS011;6855;48.112;11.298;2023-03-03T12:54:54;46.03;;;23.70;;
13566;SDS011;6855;48.112;11.298;2023-03-03T12:57:27;51.60;;;25.10;;
13566;SDS011;6855;48.112;11.298;2023-03-03T13:00:02;47.87;;;23.57;;
13566;SDS011;6855;48.112;11.298;2023-03-03T13:02:40;54.53;;;25.60;;
13566;SDS011;6855;48.112;11.298;2023-03-03T13:05:13;51.40;;;25.00;;
13566;SDS011;6855;48.112;11.298;2023-03-03T13:07:42;46.30;;;24.80;;
13566;SDS011;6855;48.112;11.298;2023-03-03T13:10:15;43.23;;;23.47;;
13566;SDS011;6855;48.112;11.298;2023-03-03T13:12:45;50.17;;;24.70;;
13566;SDS011;6855;48.112;11.298;2023-03-03T13:15:17;47.17;;;25.37;;
13566;SDS011;6855;48.112;11.298;2023-03-03T13:17:50;46.83;;;24.33;;
13566;SDS011;6855;48.112;11.298;2023-03-03T13:20:21;47.20;;;23.77;;
13566;SDS011;6855;48.112;11.298;2023-03-03T13:22:52;44.27;;;23.70;;
13566;SDS011;6855;48.112;11.298;2023-03-03T13:25:30;47.00;;;22.63;;
13566;SDS011;6855;48.112;11.298;2023-03-03T13:27:59;47.20;;;25.40;;
13566;SDS011;6855;48.112;11.298;2023-03-03T13:30:29;48.67;;;25.40;;
13566;SDS011;6855;48.112;11.298;2023-03-03T13:32:59;45.37;;;24.77;;
13566;SDS011;6855;48.112;11.298;2023-03-03T13:35:30;46.80;;;23.23;;
13566;SDS011;6855;48.112;11.298;2023-03-03T13:37:58;45.87;;;23.87;;
13566;SDS011;6855;48.112;11.298;2023-03-03T13:40:32;49.30;;;26.13;;
13566;SDS011;6855;48.112;11.298;2023-03-03T13:43:03;46.60;;;24.60;;
13566;SDS011;6855;48.112;11.298;2023-03-03T13:45:33;46.90;;;23.80;;
13566;SDS011;6855;48.112;11.298;2023-03-03T13:48:05;48.03;;;25.03;;
13566;SDS011;6855;48.112;11.298;2023-03-03T13:50:39;50.87;;;24.93;;
13566;SDS011;6855;48.112;11.298;2023-03-03T13:53:26;49.20;;;24.37;;
13566;SDS011;6855;48.112;11.298;2023-03-03T13:55:56;55.93;;;25.10;;
13566;SDS011;6855;48.112;11.298;2023-03-03T13:58:28;48.17;;;25.80;;
13566;SDS011;6855;48.112;11.298;2023-03-03T14:01:02;42.27;;;22.97;;
13566;SDS011;6855;48.112;11.298;2023-03-03T14:03:36;43.90;;;22.40;;
13566;SDS011;6855;48.112;11.298;2023-03-03T14:06:08;41.93;;;23.67;;
13566;SDS011;6855;48.112;11.298;2023-03-03T14:08:43;50.60;;;23.67;;
13566;SDS011;6855;48.112;11.298;2023-03-03T14:11:15;49.87;;;23.70;;
13566;SDS011;6855;48.112;11.298;2023-03-03T14:13:48;49.20;;;24.63;;
13566;SDS011;6855;48.112;11.298;2023-03-03T14:16:18;46.53;;;25.10;;
13566;SDS011;6855;48.112;11.298;2023-03-03T14:18:51;47.90;;;25.70;;
13566;SDS011;6855;48.112;11.298;2023-03-03T14:21:21;50.97;;;24.47;;
13566;SDS011;6855;48.112;11.298;2023-03-03T14:23:50;50.73;;;26.10;;
13566;SDS011;6855;48.112;11.298;2023-03-03T14:26:21;52.63;;;24.33;;
13566;SDS011;6855;48.112;11.298;2023-03-03T14:28:48;54.10;;;25.10;;
13566;SDS011;6855;48.112;11.298;2023-03-03T14:31:17;43.47;;;25.63;;
13566;SDS011;6855;48.112;11.298;2023-03-03T14:33:57;46.47;;;23.17;;
13566;SDS011;6855;48.112;11.298;2023-03-03T14:36:26;48.50;;;24.80;;
13566;SDS011;6855;48.112;11.298;2023-03-03T14:38:53;42.40;;;23.70;;
13566;SDS011;6855;48.112;11.298;2023-03-03T14:41:22;47.77;;;24.10;;
13566;SDS011;6855;48.112;11.298;2023-03-03T14:44:00;41.30;;;22.67;;
13566;SDS011;6855;48.112;11.298;2023-03-03T14:46:35;43.50;;;24.60;;
13566;SDS011;6855;48.112;11.298;2023-03-03T14:49:05;45.40;;;23.60;;
13566;SDS011;6855;48.112;11.298;2023-03-03T14:51:39;44.40;;;24.53;;
13566;SDS011;6855;48.112;11.298;2023-03-03T14:54:07;49.77;;;25.43;;